sensor_id;sensor_type;location;lat;lon;timestamp;P1;durP1;ratioP1;P2;durP2;ratioP2
72095;SDS011;59968;51.084;16.748;2022-08-02T00:00:43;3.50;;;2.30;;
72095;SDS011;59968;51.084;16.748;2022-08-02T00:03:11;3.50;;;2.60;;
72095;SDS011;59968;51.084;16.748;2022-08-02T00:05:41;3.90;;;2.80;;
72095;SDS011;59968;51.084;16.748;2022-08-02T00:08:20;3.70;;;2.50;;
72095;SDS011;59968;51.084;16.748;2022-08-02T00:10:49;3.80;;;3.10;;
72095;SDS011;59968;51.084;16.748;2022-08-02T00:13:17;3.80;;;3.20;;
72095;SDS011;59968;51.084;16.748;2022-08-02T00:15:46;4.90;;;2.80;;
72095;SDS011;59968;51.084;16.748;2022-08-02T00:18:14;3.30;;;2.50;;
72095;SDS011;59968;51.084;16.748;2022-08-02T00:20:43;4.00;;;2.60;;
72095;SDS011;59968;51.084;16.748;2022-08-02T00:23:11;4.30;;;2.90;;
72095;SDS011;59968;51.084;16.748;2022-08-02T00:25:39;4.10;;;2.90;;
72095;SDS011;59968;51.084;16.748;2022-08-02T00:28:22;4.30;;;3.30;;
72095;SDS011;59968;51.084;16.748;2022-08-02T00:30:55;4.50;;;3.10;;
72095;SDS011;59968;51.084;16.748;2022-08-02T00:33:25;3.60;;;2.70;;
72095;SDS011;59968;51.084;16.748;2022-08-02T00:36:14;3.60;;;2.50;;
72095;SDS011;59968;51.084;16.748;2022-08-02T00:38:42;3.60;;;2.60;;
72095;SDS011;59968;51.084;16.748;2022-08-02T00:41:12;3.50;;;2.60;;
72095;SDS011;59968;51.084;16.748;2022-08-02T00:43:43;2.90;;;2.20;;
72095;SDS011;59968;51.084;16.748;2022-08-02T00:46:13;5.80;;;2.80;;
72095;SDS011;59968;51.084;16.748;2022-08-02T00:48:42;3.40;;;2.10;;
72095;SDS011;59968;51.084;16.748;2022-08-02T00:51:11;4.70;;;2.90;;
72095;SDS011;59968;51.084;16.748;2022-08-02T00:53:40;3.60;;;2.50;;
72095;SDS011;59968;51.084;16.748;2022-08-02T00:56:08;4.10;;;2.40;;
72095;SDS011;59968;51.084;16.748;2022-08-02T00:58:37;4.60;;;3.00;;
72095;SDS011;59968;51.084;16.748;2022-08-02T01:01:06;3.10;;;2.60;;
72095;SDS011;59968;51.084;16.748;2022-08-02T01:03:34;4.10;;;3.00;;
72095;SDS011;59968;51.084;16.748;2022-08-02T01:06:02;2.60;;;2.00;;
72095;SDS011;59968;51.084;16.748;2022-08-02T01:08:38;4.00;;;2.50;;
72095;SDS011;59968;51.084;16.748;2022-08-02T01:11:07;3.70;;;2.40;;
72095;SDS011;59968;51.084;16.748;2022-08-02T01:13:35;3.10;;;2.40;;
72095;SDS011;59968;51.084;16.748;2022-08-02T01:16:07;3.90;;;2.60;;
72095;SDS011;59968;51.084;16.748;2022-08-02T01:18:43;2.70;;;2.40;;
72095;SDS011;59968;51.084;16.748;2022-08-02T01:24:21;2.80;;;2.40;;
72095;SDS011;59968;51.084;16.748;2022-08-02T01:30:00;3.10;;;2.40;;
72095;SDS011;59968;51.084;16.748;2022-08-02T01:32:33;3.40;;;2.50;;
72095;SDS011;59968;51.084;16.748;2022-08-02T01:35:19;3.70;;;2.30;;
72095;SDS011;59968;51.084;16.748;2022-08-02T01:37:57;3.40;;;2.60;;
72095;SDS011;59968;51.084;16.748;2022-08-02T01:40:37;4.00;;;2.80;;
72095;SDS011;59968;51.084;16.748;2022-08-02T01:43:08;3.50;;;2.70;;
72095;SDS011;59968;51.084;16.748;2022-08-02T01:45:40;4.10;;;2.70;;
72095;SDS011;59968;51.084;16.748;2022-08-02T01:48:09;3.30;;;2.50;;
72095;SDS011;59968;51.084;16.748;2022-08-02T01:50:40;3.90;;;2.80;;
72095;SDS011;59968;51.084;16.748;2022-08-02T01:53:10;2.80;;;1.80;;
72095;SDS011;59968;51.084;16.748;2022-08-02T01:55:40;2.40;;;1.90;;
72095;SDS011;59968;51.084;16.748;2022-08-02T01:58:30;2.90;;;2.40;;
72095;SDS011;59968;51.084;16.748;2022-08-02T02:01:02;5.30;;;3.10;;
72095;SDS011;59968;51.084;16.748;2022-08-02T02:03:32;4.30;;;3.10;;
72095;SDS011;59968;51.084;16.748;2022-08-02T02:06:08;4.60;;;3.00;;
72095;SDS011;59968;51.084;16.748;2022-08-02T02:08:38;3.90;;;3.40;;
72095;SDS011;59968;51.084;16.748;2022-08-02T02:11:08;3.90;;;2.70;;
72095;SDS011;59968;51.084;16.748;2022-08-02T02:13:57;3.10;;;2.50;;
72095;SDS011;59968;51.084;16.748;2022-08-02T02:16:28;4.00;;;3.10;;
72095;SDS011;59968;51.084;16.748;2022-08-02T02:19:00;4.60;;;2.60;;
72095;SDS011;59968;51.084;16.748;2022-08-02T02:21:30;4.10;;;2.70;;
72095;SDS011;59968;51.084;16.748;2022-08-02T02:24:01;3.50;;;2.60;;
72095;SDS011;59968;51.084;16.748;2022-08-02T02:26:34;2.70;;;1.70;;
72095;SDS011;59968;51.084;16.748;2022-08-02T02:29:08;3.50;;;3.00;;
72095;SDS011;59968;51.084;16.748;2022-08-02T02:31:39;3.70;;;2.50;;
72095;SDS011;59968;51.084;16.748;2022-08-02T02:34:15;3.90;;;2.70;;
72095;SDS011;59968;51.084;16.748;2022-08-02T02:36:50;3.00;;;2.10;;
72095;SDS011;59968;51.084;16.748;2022-08-02T02:39:20;4.30;;;3.20;;
72095;SDS011;59968;51.084;16.748;2022-08-02T02:41:50;6.10;;;3.20;;
72095;SDS011;59968;51.084;16.748;2022-08-02T02:44:21;3.90;;;3.40;;
72095;SDS011;59968;51.084;16.748;2022-08-02T02:46:51;4.30;;;3.10;;
72095;SDS011;59968;51.084;16.748;2022-08-02T02:49:22;4.30;;;2.50;;
72095;SDS011;59968;51.084;16.748;2022-08-02T02:51:52;4.90;;;3.50;;
72095;SDS011;59968;51.084;16.748;2022-08-02T02:54:21;4.10;;;3.10;;
72095;SDS011;59968;51.084;16.748;2022-08-02T02:57:02;4.20;;;3.40;;
72095;SDS011;59968;51.084;16.748;2022-08-02T02:59:35;5.20;;;3.50;;
72095;SDS011;59968;51.084;16.748;2022-08-02T03:02:16;4.30;;;3.30;;
72095;SDS011;59968;51.084;16.748;2022-08-02T03:04:46;6.50;;;4.00;;
72095;SDS011;59968;51.084;16.748;2022-08-02T03:07:24;3.70;;;2.60;;
72095;SDS011;59968;51.084;16.748;2022-08-02T03:09:54;4.40;;;3.40;;
72095;SDS011;59968;51.084;16.748;2022-08-02T03:12:23;6.20;;;3.70;;
72095;SDS011;59968;51.084;16.748;2022-08-02T03:14:59;4.90;;;3.40;;
72095;SDS011;59968;51.084;16.748;2022-08-02T03:17:41;4.70;;;3.00;;
72095;SDS011;59968;51.084;16.748;2022-08-02T03:20:12;5.20;;;3.80;;
72095;SDS011;59968;51.084;16.748;2022-08-02T03:22:45;5.40;;;3.10;;
72095;SDS011;59968;51.084;16.748;2022-08-02T03:25:15;4.60;;;3.30;;
72095;SDS011;59968;51.084;16.748;2022-08-02T03:27:47;3.90;;;3.00;;
72095;SDS011;59968;51.084;16.748;2022-08-02T03:30:16;3.90;;;2.10;;
72095;SDS011;59968;51.084;16.748;2022-08-02T03:32:45;4.70;;;3.20;;
72095;SDS011;59968;51.084;16.748;2022-08-02T03:35:15;4.90;;;3.20;;
72095;SDS011;59968;51.084;16.748;2022-08-02T03:37:51;4.60;;;2.50;;
72095;SDS011;59968;51.084;16.748;2022-08-02T03:40:22;3.90;;;3.10;;
72095;SDS011;59968;51.084;16.748;2022-08-02T03:42:52;5.80;;;3.90;;
72095;SDS011;59968;51.084;16.748;2022-08-02T03:45:21;4.90;;;3.70;;
72095;SDS011;59968;51.084;16.748;2022-08-02T03:47:51;4.90;;;3.80;;
72095;SDS011;59968;51.084;16.748;2022-08-02T03:50:19;5.20;;;3.60;;
72095;SDS011;59968;51.084;16.748;2022-08-02T03:52:49;6.60;;;3.30;;
72095;SDS011;59968;51.084;16.748;2022-08-02T03:55:19;4.90;;;3.70;;
72095;SDS011;59968;51.084;16.748;2022-08-02T03:57:47;3.90;;;2.70;;
72095;SDS011;59968;51.084;16.748;2022-08-02T04:00:19;3.90;;;2.60;;
72095;SDS011;59968;51.084;16.748;2022-08-02T04:02:49;6.60;;;3.90;;
72095;SDS011;59968;51.084;16.748;2022-08-02T04:05:17;4.60;;;3.40;;
72095;SDS011;59968;51.084;16.748;2022-08-02T04:07:46;5.80;;;3.20;;
72095;SDS011;59968;51.084;16.748;2022-08-02T04:10:36;5.90;;;4.20;;
72095;SDS011;59968;51.084;16.748;2022-08-02T04:13:25;6.60;;;4.70;;
72095;SDS011;59968;51.084;16.748;2022-08-02T04:16:17;8.20;;;5.80;;
72095;SDS011;59968;51.084;16.748;2022-08-02T04:18:53;6.70;;;4.20;;
72095;SDS011;59968;51.084;16.748;2022-08-02T04:21:30;6.00;;;4.70;;
72095;SDS011;59968;51.084;16.748;2022-08-02T04:24:16;7.00;;;5.70;;
72095;SDS011;59968;51.084;16.748;2022-08-02T04:27:00;7.00;;;5.10;;
72095;SDS011;59968;51.084;16.748;2022-08-02T04:29:51;5.90;;;4.20;;
72095;SDS011;59968;51.084;16.748;2022-08-02T04:32:20;7.60;;;4.90;;
72095;SDS011;59968;51.084;16.748;2022-08-02T04:34:49;8.20;;;5.60;;
72095;SDS011;59968;51.084;16.748;2022-08-02T04:37:38;6.80;;;4.40;;
72095;SDS011;59968;51.084;16.748;2022-08-02T04:40:27;7.90;;;4.90;;
72095;SDS011;59968;51.084;16.748;2022-08-02T04:42:56;6.70;;;4.70;;
72095;SDS011;59968;51.084;16.748;2022-08-02T04:45:24;8.70;;;5.80;;
72095;SDS011;59968;51.084;16.748;2022-08-02T04:47:54;9.90;;;6.00;;
72095;SDS011;59968;51.084;16.748;2022-08-02T04:50:32;6.40;;;4.00;;
72095;SDS011;59968;51.084;16.748;2022-08-02T04:53:02;7.60;;;5.40;;
72095;SDS011;59968;51.084;16.748;2022-08-02T04:55:30;6.60;;;4.70;;
72095;SDS011;59968;51.084;16.748;2022-08-02T04:57:58;7.40;;;5.90;;
72095;SDS011;59968;51.084;16.748;2022-08-02T05:00:30;8.50;;;6.00;;
72095;SDS011;59968;51.084;16.748;2022-08-02T05:02:59;6.50;;;5.20;;
72095;SDS011;59968;51.084;16.748;2022-08-02T05:05:29;7.60;;;5.40;;
72095;SDS011;59968;51.084;16.748;2022-08-02T05:07:57;6.80;;;4.80;;
72095;SDS011;59968;51.084;16.748;2022-08-02T05:10:26;7.20;;;5.30;;
72095;SDS011;59968;51.084;16.748;2022-08-02T05:12:55;8.20;;;5.10;;
72095;SDS011;59968;51.084;16.748;2022-08-02T05:15:23;9.30;;;6.30;;
72095;SDS011;59968;51.084;16.748;2022-08-02T05:17:52;7.80;;;5.30;;
72095;SDS011;59968;51.084;16.748;2022-08-02T05:20:20;5.50;;;3.80;;
72095;SDS011;59968;51.084;16.748;2022-08-02T05:22:49;6.50;;;4.90;;
72095;SDS011;59968;51.084;16.748;2022-08-02T05:25:17;9.00;;;5.70;;
72095;SDS011;59968;51.084;16.748;2022-08-02T05:27:45;6.60;;;4.90;;
72095;SDS011;59968;51.084;16.748;2022-08-02T05:30:14;8.10;;;5.90;;
72095;SDS011;59968;51.084;16.748;2022-08-02T05:32:43;5.90;;;4.10;;
72095;SDS011;59968;51.084;16.748;2022-08-02T05:35:15;6.50;;;4.40;;
72095;SDS011;59968;51.084;16.748;2022-08-02T05:37:47;7.70;;;5.40;;
72095;SDS011;59968;51.084;16.748;2022-08-02T05:40:16;8.00;;;5.60;;
72095;SDS011;59968;51.084;16.748;2022-08-02T05:42:53;7.50;;;4.40;;
72095;SDS011;59968;51.084;16.748;2022-08-02T05:45:22;7.10;;;5.10;;
72095;SDS011;59968;51.084;16.748;2022-08-02T05:47:50;8.10;;;5.60;;
72095;SDS011;59968;51.084;16.748;2022-08-02T05:50:19;6.70;;;5.30;;
72095;SDS011;59968;51.084;16.748;2022-08-02T05:53:13;6.60;;;4.50;;
72095;SDS011;59968;51.084;16.748;2022-08-02T05:56:15;7.30;;;4.70;;
72095;SDS011;59968;51.084;16.748;2022-08-02T05:59:10;6.60;;;4.50;;
72095;SDS011;59968;51.084;16.748;2022-08-02T06:01:44;6.50;;;4.70;;
72095;SDS011;59968;51.084;16.748;2022-08-02T06:04:22;6.40;;;4.30;;
72095;SDS011;59968;51.084;16.748;2022-08-02T06:06:58;4.70;;;3.30;;
72095;SDS011;59968;51.084;16.748;2022-08-02T06:09:58;7.40;;;5.20;;
72095;SDS011;59968;51.084;16.748;2022-08-02T06:12:28;5.40;;;4.60;;
72095;SDS011;59968;51.084;16.748;2022-08-02T06:15:00;5.30;;;4.30;;
72095;SDS011;59968;51.084;16.748;2022-08-02T06:17:31;5.50;;;3.90;;
72095;SDS011;59968;51.084;16.748;2022-08-02T06:20:00;7.30;;;4.80;;
72095;SDS011;59968;51.084;16.748;2022-08-02T06:22:30;6.40;;;4.50;;
72095;SDS011;59968;51.084;16.748;2022-08-02T06:25:05;5.90;;;4.30;;
72095;SDS011;59968;51.084;16.748;2022-08-02T06:27:54;7.10;;;5.30;;
72095;SDS011;59968;51.084;16.748;2022-08-02T06:30:23;6.00;;;4.60;;
72095;SDS011;59968;51.084;16.748;2022-08-02T06:32:51;6.50;;;5.00;;
72095;SDS011;59968;51.084;16.748;2022-08-02T06:35:22;7.00;;;5.40;;
72095;SDS011;59968;51.084;16.748;2022-08-02T06:38:23;6.80;;;5.30;;
72095;SDS011;59968;51.084;16.748;2022-08-02T06:41:05;5.80;;;4.30;;
72095;SDS011;59968;51.084;16.748;2022-08-02T06:46:48;5.60;;;3.90;;
72095;SDS011;59968;51.084;16.748;2022-08-02T06:49:37;7.20;;;5.20;;
72095;SDS011;59968;51.084;16.748;2022-08-02T06:52:25;7.80;;;5.30;;
72095;SDS011;59968;51.084;16.748;2022-08-02T06:54:58;6.80;;;4.90;;
72095;SDS011;59968;51.084;16.748;2022-08-02T06:57:28;5.40;;;4.50;;
72095;SDS011;59968;51.084;16.748;2022-08-02T06:59:57;6.60;;;4.00;;
72095;SDS011;59968;51.084;16.748;2022-08-02T07:02:31;5.50;;;4.40;;
72095;SDS011;59968;51.084;16.748;2022-08-02T07:05:03;5.70;;;4.70;;
72095;SDS011;59968;51.084;16.748;2022-08-02T07:07:33;6.00;;;4.70;;
72095;SDS011;59968;51.084;16.748;2022-08-02T07:10:04;6.50;;;4.90;;
72095;SDS011;59968;51.084;16.748;2022-08-02T07:12:34;5.80;;;4.60;;
72095;SDS011;59968;51.084;16.748;2022-08-02T07:15:04;6.50;;;4.30;;
72095;SDS011;59968;51.084;16.748;2022-08-02T07:17:34;6.80;;;3.50;;
72095;SDS011;59968;51.084;16.748;2022-08-02T07:20:07;6.70;;;4.30;;
72095;SDS011;59968;51.084;16.748;2022-08-02T07:22:37;5.70;;;4.30;;
72095;SDS011;59968;51.084;16.748;2022-08-02T07:25:06;6.40;;;4.60;;
72095;SDS011;59968;51.084;16.748;2022-08-02T07:27:37;4.60;;;3.90;;
72095;SDS011;59968;51.084;16.748;2022-08-02T07:30:05;5.80;;;3.60;;
72095;SDS011;59968;51.084;16.748;2022-08-02T07:32:35;5.30;;;4.30;;
72095;SDS011;59968;51.084;16.748;2022-08-02T07:35:05;4.10;;;3.00;;
72095;SDS011;59968;51.084;16.748;2022-08-02T07:37:35;6.90;;;3.50;;
72095;SDS011;59968;51.084;16.748;2022-08-02T07:40:26;5.80;;;3.50;;
72095;SDS011;59968;51.084;16.748;2022-08-02T07:42:56;4.40;;;3.70;;
72095;SDS011;59968;51.084;16.748;2022-08-02T07:45:31;5.50;;;3.50;;
72095;SDS011;59968;51.084;16.748;2022-08-02T07:48:03;4.20;;;3.40;;
72095;SDS011;59968;51.084;16.748;2022-08-02T07:50:33;4.00;;;3.10;;
72095;SDS011;59968;51.084;16.748;2022-08-02T07:53:02;3.50;;;3.00;;
72095;SDS011;59968;51.084;16.748;2022-08-02T07:55:32;4.00;;;3.20;;
72095;SDS011;59968;51.084;16.748;2022-08-02T07:58:08;4.00;;;3.50;;
72095;SDS011;59968;51.084;16.748;2022-08-02T08:00:42;6.60;;;3.00;;
72095;SDS011;59968;51.084;16.748;2022-08-02T08:03:11;5.80;;;3.40;;
72095;SDS011;59968;51.084;16.748;2022-08-02T08:05:40;5.20;;;3.40;;
72095;SDS011;59968;51.084;16.748;2022-08-02T08:08:09;5.00;;;3.40;;
72095;SDS011;59968;51.084;16.748;2022-08-02T08:10:44;4.40;;;3.00;;
72095;SDS011;59968;51.084;16.748;2022-08-02T08:13:13;6.50;;;3.10;;
72095;SDS011;59968;51.084;16.748;2022-08-02T08:15:43;4.60;;;3.10;;
72095;SDS011;59968;51.084;16.748;2022-08-02T08:18:20;5.90;;;3.30;;
72095;SDS011;59968;51.084;16.748;2022-08-02T08:20:50;3.50;;;3.10;;
72095;SDS011;59968;51.084;16.748;2022-08-02T08:23:19;3.70;;;2.60;;
72095;SDS011;59968;51.084;16.748;2022-08-02T08:25:49;5.40;;;3.00;;
72095;SDS011;59968;51.084;16.748;2022-08-02T08:28:20;2.90;;;2.40;;
72095;SDS011;59968;51.084;16.748;2022-08-02T08:30:51;3.30;;;2.60;;
72095;SDS011;59968;51.084;16.748;2022-08-02T08:33:21;4.60;;;2.90;;
72095;SDS011;59968;51.084;16.748;2022-08-02T08:35:50;4.10;;;2.80;;
72095;SDS011;59968;51.084;16.748;2022-08-02T08:38:24;4.10;;;2.90;;
72095;SDS011;59968;51.084;16.748;2022-08-02T08:40:56;3.60;;;3.10;;
72095;SDS011;59968;51.084;16.748;2022-08-02T08:43:27;4.40;;;3.20;;
72095;SDS011;59968;51.084;16.748;2022-08-02T08:45:58;3.30;;;2.80;;
72095;SDS011;59968;51.084;16.748;2022-08-02T08:48:26;3.90;;;2.70;;
72095;SDS011;59968;51.084;16.748;2022-08-02T08:51:01;2.60;;;2.40;;
72095;SDS011;59968;51.084;16.748;2022-08-02T08:53:41;6.00;;;2.80;;
72095;SDS011;59968;51.084;16.748;2022-08-02T08:56:12;2.80;;;2.40;;
72095;SDS011;59968;51.084;16.748;2022-08-02T08:58:44;3.50;;;2.90;;
72095;SDS011;59968;51.084;16.748;2022-08-02T09:01:16;3.30;;;3.00;;
72095;SDS011;59968;51.084;16.748;2022-08-02T09:03:46;5.50;;;3.10;;
72095;SDS011;59968;51.084;16.748;2022-08-02T09:06:17;3.50;;;3.00;;
72095;SDS011;59968;51.084;16.748;2022-08-02T09:08:47;4.20;;;3.00;;
72095;SDS011;59968;51.084;16.748;2022-08-02T09:11:18;3.10;;;2.80;;
72095;SDS011;59968;51.084;16.748;2022-08-02T09:22:00;5.50;;;3.90;;
72095;SDS011;59968;51.084;16.748;2022-08-02T09:24:42;4.50;;;3.00;;
72095;SDS011;59968;51.084;16.748;2022-08-02T09:27:19;3.70;;;2.90;;
72095;SDS011;59968;51.084;16.748;2022-08-02T09:29:51;3.60;;;2.80;;
72095;SDS011;59968;51.084;16.748;2022-08-02T09:32:44;4.90;;;3.20;;
72095;SDS011;59968;51.084;16.748;2022-08-02T09:35:29;4.90;;;3.90;;
72095;SDS011;59968;51.084;16.748;2022-08-02T09:38:19;4.10;;;2.90;;
72095;SDS011;59968;51.084;16.748;2022-08-02T09:40:47;3.80;;;3.00;;
72095;SDS011;59968;51.084;16.748;2022-08-02T09:43:16;3.90;;;3.40;;
72095;SDS011;59968;51.084;16.748;2022-08-02T09:45:46;5.40;;;3.30;;
72095;SDS011;59968;51.084;16.748;2022-08-02T09:48:15;3.80;;;3.40;;
72095;SDS011;59968;51.084;16.748;2022-08-02T09:50:44;3.90;;;3.20;;
72095;SDS011;59968;51.084;16.748;2022-08-02T09:53:14;5.30;;;3.90;;
72095;SDS011;59968;51.084;16.748;2022-08-02T09:55:53;4.80;;;4.30;;
72095;SDS011;59968;51.084;16.748;2022-08-02T09:58:23;4.40;;;3.50;;
72095;SDS011;59968;51.084;16.748;2022-08-02T10:00:56;4.30;;;3.70;;
72095;SDS011;59968;51.084;16.748;2022-08-02T10:03:29;4.60;;;3.50;;
72095;SDS011;59968;51.084;16.748;2022-08-02T10:06:05;4.50;;;3.70;;
72095;SDS011;59968;51.084;16.748;2022-08-02T10:08:34;3.50;;;3.10;;
72095;SDS011;59968;51.084;16.748;2022-08-02T10:11:03;4.20;;;3.80;;
72095;SDS011;59968;51.084;16.748;2022-08-02T10:13:33;3.80;;;3.20;;
72095;SDS011;59968;51.084;16.748;2022-08-02T10:16:03;4.30;;;3.10;;
72095;SDS011;59968;51.084;16.748;2022-08-02T10:18:34;4.40;;;3.30;;
72095;SDS011;59968;51.084;16.748;2022-08-02T10:21:43;5.00;;;3.30;;
72095;SDS011;59968;51.084;16.748;2022-08-02T10:27:05;3.90;;;3.30;;
72095;SDS011;59968;51.084;16.748;2022-08-02T10:29:44;4.20;;;3.40;;
72095;SDS011;59968;51.084;16.748;2022-08-02T10:32:56;4.00;;;3.40;;
72095;SDS011;59968;51.084;16.748;2022-08-02T10:35:20;5.20;;;3.30;;
72095;SDS011;59968;51.084;16.748;2022-08-02T10:37:55;5.00;;;3.40;;
72095;SDS011;59968;51.084;16.748;2022-08-02T10:41:05;3.80;;;3.40;;
72095;SDS011;59968;51.084;16.748;2022-08-02T10:52:06;4.40;;;3.20;;
72095;SDS011;59968;51.084;16.748;2022-08-02T10:54:40;3.30;;;3.00;;
72095;SDS011;59968;51.084;16.748;2022-08-02T10:57:30;4.10;;;3.10;;
72095;SDS011;59968;51.084;16.748;2022-08-02T11:02:51;3.40;;;2.60;;
72095;SDS011;59968;51.084;16.748;2022-08-02T11:05:26;3.40;;;3.00;;
72095;SDS011;59968;51.084;16.748;2022-08-02T11:08:17;7.80;;;3.30;;
72095;SDS011;59968;51.084;16.748;2022-08-02T11:10:49;5.50;;;3.10;;
72095;SDS011;59968;51.084;16.748;2022-08-02T11:13:17;3.50;;;3.20;;
72095;SDS011;59968;51.084;16.748;2022-08-02T11:18:18;3.20;;;2.90;;
72095;SDS011;59968;51.084;16.748;2022-08-02T11:21:02;3.50;;;3.20;;
72095;SDS011;59968;51.084;16.748;2022-08-02T11:23:55;3.00;;;2.70;;
72095;SDS011;59968;51.084;16.748;2022-08-02T11:26:44;3.40;;;3.10;;
72095;SDS011;59968;51.084;16.748;2022-08-02T11:29:13;3.70;;;3.30;;
72095;SDS011;59968;51.084;16.748;2022-08-02T11:31:43;4.10;;;3.20;;
72095;SDS011;59968;51.084;16.748;2022-08-02T11:34:14;3.70;;;3.40;;
72095;SDS011;59968;51.084;16.748;2022-08-02T11:37:04;3.10;;;2.80;;
72095;SDS011;59968;51.084;16.748;2022-08-02T11:39:33;3.10;;;2.70;;
72095;SDS011;59968;51.084;16.748;2022-08-02T11:42:01;2.60;;;2.30;;
72095;SDS011;59968;51.084;16.748;2022-08-02T11:44:38;3.60;;;2.90;;
72095;SDS011;59968;51.084;16.748;2022-08-02T11:47:09;3.10;;;2.80;;
72095;SDS011;59968;51.084;16.748;2022-08-02T11:49:38;4.20;;;2.90;;
72095;SDS011;59968;51.084;16.748;2022-08-02T11:52:07;3.00;;;2.70;;
72095;SDS011;59968;51.084;16.748;2022-08-02T11:54:41;3.40;;;2.80;;
72095;SDS011;59968;51.084;16.748;2022-08-02T11:57:11;3.10;;;2.80;;
72095;SDS011;59968;51.084;16.748;2022-08-02T11:59:48;3.30;;;3.00;;
72095;SDS011;59968;51.084;16.748;2022-08-02T12:02:25;3.70;;;2.80;;
72095;SDS011;59968;51.084;16.748;2022-08-02T12:05:00;4.90;;;2.80;;
72095;SDS011;59968;51.084;16.748;2022-08-02T12:07:37;3.40;;;2.90;;
72095;SDS011;59968;51.084;16.748;2022-08-02T12:10:16;4.90;;;2.70;;
72095;SDS011;59968;51.084;16.748;2022-08-02T12:12:51;4.60;;;3.10;;
72095;SDS011;59968;51.084;16.748;2022-08-02T12:18:10;3.20;;;2.90;;
72095;SDS011;59968;51.084;16.748;2022-08-02T12:21:00;3.70;;;2.90;;
72095;SDS011;59968;51.084;16.748;2022-08-02T12:23:30;2.80;;;2.50;;
72095;SDS011;59968;51.084;16.748;2022-08-02T12:26:06;3.20;;;2.80;;
72095;SDS011;59968;51.084;16.748;2022-08-02T12:28:43;3.30;;;3.00;;
72095;SDS011;59968;51.084;16.748;2022-08-02T12:31:14;3.00;;;2.60;;
72095;SDS011;59968;51.084;16.748;2022-08-02T12:33:52;4.40;;;3.00;;
72095;SDS011;59968;51.084;16.748;2022-08-02T12:36:29;3.40;;;2.30;;
72095;SDS011;59968;51.084;16.748;2022-08-02T12:39:04;2.70;;;2.50;;
72095;SDS011;59968;51.084;16.748;2022-08-02T12:41:55;3.00;;;2.70;;
72095;SDS011;59968;51.084;16.748;2022-08-02T12:44:36;3.30;;;3.00;;
72095;SDS011;59968;51.084;16.748;2022-08-02T12:47:12;2.90;;;2.60;;
72095;SDS011;59968;51.084;16.748;2022-08-02T12:49:43;2.90;;;2.60;;
72095;SDS011;59968;51.084;16.748;2022-08-02T12:52:34;5.60;;;2.40;;
72095;SDS011;59968;51.084;16.748;2022-08-02T12:55:22;2.80;;;2.60;;
72095;SDS011;59968;51.084;16.748;2022-08-02T12:58:16;2.80;;;2.30;;
72095;SDS011;59968;51.084;16.748;2022-08-02T13:00:52;3.50;;;2.80;;
72095;SDS011;59968;51.084;16.748;2022-08-02T13:03:25;3.20;;;2.80;;
72095;SDS011;59968;51.084;16.748;2022-08-02T13:06:15;3.10;;;2.80;;
72095;SDS011;59968;51.084;16.748;2022-08-02T13:09:12;2.80;;;2.60;;
72095;SDS011;59968;51.084;16.748;2022-08-02T13:11:46;2.80;;;2.60;;
72095;SDS011;59968;51.084;16.748;2022-08-02T13:14:15;2.60;;;2.40;;
72095;SDS011;59968;51.084;16.748;2022-08-02T13:16:45;3.00;;;2.80;;
72095;SDS011;59968;51.084;16.748;2022-08-02T13:19:14;2.90;;;2.60;;
72095;SDS011;59968;51.084;16.748;2022-08-02T13:21:44;3.00;;;2.70;;
72095;SDS011;59968;51.084;16.748;2022-08-02T13:24:35;3.90;;;2.70;;
72095;SDS011;59968;51.084;16.748;2022-08-02T13:27:24;3.50;;;2.50;;
72095;SDS011;59968;51.084;16.748;2022-08-02T13:29:55;3.60;;;2.80;;
72095;SDS011;59968;51.084;16.748;2022-08-02T13:32:25;4.00;;;2.80;;
72095;SDS011;59968;51.084;16.748;2022-08-02T13:34:56;3.00;;;2.40;;
72095;SDS011;59968;51.084;16.748;2022-08-02T13:37:31;4.00;;;3.10;;
72095;SDS011;59968;51.084;16.748;2022-08-02T13:40:07;3.10;;;2.70;;
72095;SDS011;59968;51.084;16.748;2022-08-02T13:42:49;2.70;;;2.50;;
72095;SDS011;59968;51.084;16.748;2022-08-02T13:45:19;2.90;;;2.60;;
72095;SDS011;59968;51.084;16.748;2022-08-02T13:47:50;3.20;;;2.80;;
72095;SDS011;59968;51.084;16.748;2022-08-02T13:50:32;3.00;;;2.70;;
72095;SDS011;59968;51.084;16.748;2022-08-02T13:53:02;4.40;;;3.00;;
72095;SDS011;59968;51.084;16.748;2022-08-02T13:55:34;3.20;;;2.60;;
72095;SDS011;59968;51.084;16.748;2022-08-02T13:58:11;3.20;;;2.90;;
72095;SDS011;59968;51.084;16.748;2022-08-02T14:00:40;3.30;;;2.90;;
72095;SDS011;59968;51.084;16.748;2022-08-02T14:03:09;2.70;;;2.50;;
72095;SDS011;59968;51.084;16.748;2022-08-02T14:05:40;3.50;;;3.20;;
72095;SDS011;59968;51.084;16.748;2022-08-02T14:08:18;3.00;;;2.70;;
72095;SDS011;59968;51.084;16.748;2022-08-02T14:10:55;3.90;;;2.80;;
72095;SDS011;59968;51.084;16.748;2022-08-02T14:13:25;2.70;;;2.50;;
72095;SDS011;59968;51.084;16.748;2022-08-02T14:16:03;2.80;;;2.50;;
72095;SDS011;59968;51.084;16.748;2022-08-02T14:18:33;3.20;;;2.90;;
72095;SDS011;59968;51.084;16.748;2022-08-02T14:21:07;3.40;;;3.00;;
72095;SDS011;59968;51.084;16.748;2022-08-02T14:23:39;4.70;;;2.70;;
72095;SDS011;59968;51.084;16.748;2022-08-02T14:26:18;2.70;;;2.40;;
72095;SDS011;59968;51.084;16.748;2022-08-02T14:28:54;3.30;;;3.00;;
72095;SDS011;59968;51.084;16.748;2022-08-02T14:31:23;3.10;;;2.80;;
72095;SDS011;59968;51.084;16.748;2022-08-02T14:33:52;3.10;;;2.80;;
72095;SDS011;59968;51.084;16.748;2022-08-02T14:36:22;5.20;;;3.10;;
72095;SDS011;59968;51.084;16.748;2022-08-02T14:38:55;2.80;;;2.60;;
72095;SDS011;59968;51.084;16.748;2022-08-02T14:41:24;3.60;;;3.20;;
72095;SDS011;59968;51.084;16.748;2022-08-02T14:43:52;3.30;;;2.70;;
72095;SDS011;59968;51.084;16.748;2022-08-02T14:46:35;3.70;;;3.20;;
72095;SDS011;59968;51.084;16.748;2022-08-02T14:49:05;4.50;;;3.10;;
72095;SDS011;59968;51.084;16.748;2022-08-02T14:51:35;3.20;;;2.90;;
72095;SDS011;59968;51.084;16.748;2022-08-02T14:54:06;3.10;;;2.80;;
72095;SDS011;59968;51.084;16.748;2022-08-02T14:56:38;5.70;;;3.30;;
72095;SDS011;59968;51.084;16.748;2022-08-02T14:59:07;3.30;;;3.00;;
72095;SDS011;59968;51.084;16.748;2022-08-02T15:01:38;3.80;;;3.20;;
72095;SDS011;59968;51.084;16.748;2022-08-02T15:04:06;3.30;;;2.70;;
72095;SDS011;59968;51.084;16.748;2022-08-02T15:06:35;2.90;;;2.50;;
72095;SDS011;59968;51.084;16.748;2022-08-02T15:09:04;3.40;;;2.50;;
72095;SDS011;59968;51.084;16.748;2022-08-02T15:11:42;6.20;;;2.70;;
72095;SDS011;59968;51.084;16.748;2022-08-02T15:14:15;4.50;;;2.80;;
72095;SDS011;59968;51.084;16.748;2022-08-02T15:16:53;4.10;;;2.70;;
72095;SDS011;59968;51.084;16.748;2022-08-02T15:19:25;3.30;;;3.00;;
72095;SDS011;59968;51.084;16.748;2022-08-02T15:22:15;3.10;;;2.80;;
72095;SDS011;59968;51.084;16.748;2022-08-02T15:24:47;3.00;;;2.60;;
72095;SDS011;59968;51.084;16.748;2022-08-02T15:27:15;4.10;;;3.00;;
72095;SDS011;59968;51.084;16.748;2022-08-02T15:29:44;3.30;;;2.80;;
72095;SDS011;59968;51.084;16.748;2022-08-02T15:32:17;3.50;;;2.70;;
72095;SDS011;59968;51.084;16.748;2022-08-02T15:34:49;4.50;;;3.10;;
72095;SDS011;59968;51.084;16.748;2022-08-02T15:37:18;3.80;;;2.90;;
72095;SDS011;59968;51.084;16.748;2022-08-02T15:39:47;3.70;;;3.00;;
72095;SDS011;59968;51.084;16.748;2022-08-02T15:42:16;5.50;;;2.80;;
72095;SDS011;59968;51.084;16.748;2022-08-02T15:44:45;7.90;;;3.00;;
72095;SDS011;59968;51.084;16.748;2022-08-02T15:47:15;5.10;;;2.90;;
72095;SDS011;59968;51.084;16.748;2022-08-02T15:49:46;3.00;;;2.70;;